Time,TemperatureF,DewpointF,PressureIn,WindDirection,WindDirectionDegrees,WindSpeedMPH,WindSpeedGustMPH,Humidity,HourlyPrecipIn,Conditions,Clouds,dailyrainin,SoftwareType,DateUTC
2013-03-31 00:09:00,45.9,45.6,29.64,SW,225,5.3,-999.0,99,-99.99,,,0.00,Acu-Link.com,2013-03-31 05:09:00,
2013-03-31 00:24:00,44.8,44.5,29.63,WNW,292,4.7,-999.0,99,-99.99,,,0.00,Acu-Link.com,2013-03-31 05:24:00,
2013-03-31 00:39:00,44.8,44.5,29.64,SW,225,4.7,-999.0,99,-99.99,,,0.00,Acu-Link.com,2013-03-31 05:39:00,
2013-03-31 00:54:00,45.1,44.8,29.63,WSW,247,6.8,-999.0,99,-99.99,,,0.00,Acu-Link.com,2013-03-31 05:54:00,
2013-03-31 01:10:00,44.4,44.1,29.63,WSW,247,7.8,-999.0,99,-99.99,,,0.00,Acu-Link.com,2013-03-31 06:10:00,
2013-03-31 01:25:00,44.1,43.8,29.62,West,270,6.8,-999.0,99,-99.99,,,0.00,Acu-Link.com,2013-03-31 06:25:00,
2013-03-31 01:40:00,43.9,43.6,29.62,SW,225,4.7,-999.0,99,-99.99,,,0.00,Acu-Link.com,2013-03-31 06:40:00,
2013-03-31 01:55:00,43.7,43.4,29.61,West,270,4.2,-999.0,99,-99.99,,,0.00,Acu-Link.com,2013-03-31 06:55:00,
2013-03-31 02:11:00,43.7,43.4,29.61,West,270,4.2,-999.0,99,-99.99,,,0.00,Acu-Link.com,2013-03-31 07:11:00,
2013-03-31 02:26:00,43.5,43.2,29.61,West,270,4.7,-999.0,99,-99.99,,,0.00,Acu-Link.com,2013-03-31 07:26:00,
2013-03-31 03:12:00,42.8,42.5,29.61,WNW,292,3.7,-999.0,99,-99.99,,,0.00,Acu-Link.com,2013-03-31 08:12:00,
2013-03-31 03:27:00,42.6,42.3,29.61,WNW,292,2.7,-999.0,99,-99.99,,,0.00,Acu-Link.com,2013-03-31 08:27:00,
2013-03-31 03:43:00,42.3,42.0,29.60,West,270,8.3,-999.0,99,-99.99,,,0.00,Acu-Link.com,2013-03-31 08:43:00,
2013-03-31 03:58:00,41.5,41.2,29.60,West,270,3.7,-999.0,99,-99.99,,,0.00,Acu-Link.com,2013-03-31 08:58:00,
2013-03-31 04:13:00,40.1,39.8,29.60,West,270,4.2,-999.0,99,-99.99,,,0.00,Acu-Link.com,2013-03-31 09:13:00,
2013-03-31 04:28:00,39.2,38.9,29.60,NNE,22,0.0,-999.0,99,-99.99,,,0.00,Acu-Link.com,2013-03-31 09:28:00,
2013-03-31 04:44:00,38.5,38.2,29.60,West,270,2.7,-999.0,99,-99.99,,,0.00,Acu-Link.com,2013-03-31 09:44:00,
2013-03-31 04:59:00,37.6,37.3,29.61,West,270,1.7,-999.0,99,-99.99,,,0.00,Acu-Link.com,2013-03-31 09:59:00,
2013-03-31 05:14:00,37.9,37.6,29.60,West,270,7.3,-999.0,99,-99.99,,,0.00,Acu-Link.com,2013-03-31 10:14:00,
2013-03-31 05:29:00,38.1,37.8,29.60,WNW,292,5.3,-999.0,99,-99.99,,,0.00,Acu-Link.com,2013-03-31 10:29:00,
2013-03-31 05:44:00,38.3,38.0,29.60,WNW,292,3.2,-999.0,99,-99.99,,,0.00,Acu-Link.com,2013-03-31 10:44:00,
2013-03-31 06:00:00,38.3,38.0,29.60,West,270,5.8,-999.0,99,-99.99,,,0.00,Acu-Link.com,2013-03-31 11:00:00,
2013-03-31 06:15:00,38.3,38.0,29.60,West,270,7.3,-999.0,99,-99.99,,,0.00,Acu-Link.com,2013-03-31 11:15:00,
2013-03-31 06:30:00,38.3,38.0,29.60,West,270,3.2,-999.0,99,-99.99,,,0.00,Acu-Link.com,2013-03-31 11:30:00,
2013-03-31 06:45:00,38.3,38.0,29.59,West,270,4.2,-999.0,99,-99.99,,,0.00,Acu-Link.com,2013-03-31 11:45:00,
2013-03-31 07:00:00,38.5,38.2,29.59,SW,225,5.3,-999.0,99,-99.99,,,0.00,Acu-Link.com,2013-03-31 12:00:00,
2013-03-31 07:16:00,38.7,38.4,29.59,WSW,247,3.7,-999.0,99,-99.99,,,0.00,Acu-Link.com,2013-03-31 12:16:00,
2013-03-31 07:31:00,38.8,38.5,29.59,West,270,3.7,-999.0,99,-99.99,,,0.00,Acu-Link.com,2013-03-31 12:31:00,
2013-03-31 07:46:00,39.2,38.9,29.58,West,270,5.3,-999.0,99,-99.99,,,0.00,Acu-Link.com,2013-03-31 12:46:00,
2013-03-31 08:01:00,39.2,38.9,29.59,West,270,6.3,-999.0,99,-99.99,,,0.00,Acu-Link.com,2013-03-31 13:01:00,
2013-03-31 08:17:00,39.6,39.3,29.59,West,270,7.8,-999.0,99,-99.99,,,0.00,Acu-Link.com,2013-03-31 13:17:00,
2013-03-31 08:32:00,39.7,39.4,29.58,West,270,4.7,-999.0,99,-99.99,,,0.00,Acu-Link.com,2013-03-31 13:32:00,
2013-03-31 09:02:00,40.5,40.2,29.56,West,270,7.8,-999.0,99,-99.99,,,0.00,Acu-Link.com,2013-03-31 14:02:00,
2013-03-31 09:17:00,41.4,41.1,29.56,WSW,247,6.3,-999.0,99,-99.99,,,0.00,Acu-Link.com,2013-03-31 14:17:00,
2013-03-31 09:33:00,42.3,42.0,29.56,West,270,7.3,-999.0,99,-99.99,,,0.00,Acu-Link.com,2013-03-31 14:33:00,
2013-03-31 09:48:00,44.6,44.3,29.56,WSW,247,9.4,-999.0,99,-99.99,,,0.00,Acu-Link.com,2013-03-31 14:48:00,
2013-03-31 10:03:00,45.0,44.7,29.56,WNW,292,8.3,-999.0,99,-99.99,,,0.00,Acu-Link.com,2013-03-31 15:03:00,
2013-03-31 10:18:00,46.2,45.9,29.55,West,270,7.3,-999.0,99,-99.99,,,0.00,Acu-Link.com,2013-03-31 15:18:00,
2013-03-31 10:33:00,48.0,47.7,29.55,West,270,9.4,-999.0,99,-99.99,,,0.00,Acu-Link.com,2013-03-31 15:33:00,
2013-03-31 10:49:00,49.1,48.8,29.55,SW,225,4.7,-999.0,99,-99.99,,,0.00,Acu-Link.com,2013-03-31 15:49:00,
2013-03-31 11:04:00,49.6,49.3,29.55,WSW,247,10.9,-999.0,99,-99.99,,,0.00,Acu-Link.com,2013-03-31 16:04:00,
2013-03-31 11:19:00,50.9,50.6,29.54,WSW,247,6.8,-999.0,99,-99.99,,,0.00,Acu-Link.com,2013-03-31 16:19:00,
2013-03-31 11:34:00,50.0,49.7,29.55,West,270,10.4,-999.0,99,-99.99,,,0.00,Acu-Link.com,2013-03-31 16:34:00,
2013-03-31 11:49:00,51.6,49.6,29.54,West,270,7.3,-999.0,93,-99.99,,,0.00,Acu-Link.com,2013-03-31 16:49:00,
2013-03-31 12:05:00,51.3,49.1,29.53,West,270,13.0,-999.0,92,-99.99,,,0.00,Acu-Link.com,2013-03-31 17:05:00,
2013-03-31 12:20:00,51.6,49.1,29.53,WSW,247,8.3,-999.0,91,-99.99,,,0.00,Acu-Link.com,2013-03-31 17:20:00,
2013-03-31 12:35:00,52.5,48.1,29.53,West,270,14.0,-999.0,85,-99.99,,,0.00,Acu-Link.com,2013-03-31 17:35:00,
2013-03-31 12:51:00,52.2,47.5,29.53,West,270,10.9,-999.0,84,-99.99,,,0.00,Acu-Link.com,2013-03-31 17:51:00,
2013-03-31 13:21:00,53.4,46.0,29.52,WNW,292,11.9,-999.0,76,-99.99,,,0.00,Acu-Link.com,2013-03-31 18:21:00,
2013-03-31 13:52:00,53.2,42.5,29.52,West,270,8.9,-999.0,67,-99.99,,,0.00,Acu-Link.com,2013-03-31 18:52:00,
2013-03-31 14:07:00,50.5,42.9,29.52,WNW,292,10.9,-999.0,75,-99.99,,,0.00,Acu-Link.com,2013-03-31 19:07:00,
2013-03-31 14:22:00,50.4,41.0,29.52,West,270,9.9,-999.0,70,-99.99,,,0.00,Acu-Link.com,2013-03-31 19:22:00,
2013-03-31 14:37:00,50.4,41.7,29.52,West,270,6.8,-999.0,72,-99.99,,,0.00,Acu-Link.com,2013-03-31 19:37:00,
2013-03-31 14:52:00,51.1,40.9,29.53,SW,225,16.1,-999.0,68,-99.99,,,0.00,Acu-Link.com,2013-03-31 19:52:00,
2013-03-31 15:08:00,49.1,43.2,29.54,West,270,15.0,-999.0,80,-99.99,,,0.00,Acu-Link.com,2013-03-31 20:08:00,
2013-03-31 15:23:00,45.0,44.2,29.56,West,270,14.5,-999.0,97,-99.99,,,0.00,Acu-Link.com,2013-03-31 20:23:00,
2013-03-31 15:38:00,42.8,42.5,29.56,West,270,14.0,-999.0,99,-99.99,,,0.00,Acu-Link.com,2013-03-31 20:38:00,
2013-03-31 15:53:00,41.7,41.4,29.57,West,270,11.4,-999.0,99,-99.99,,,0.00,Acu-Link.com,2013-03-31 20:53:00,
2013-03-31 16:08:00,40.6,40.3,29.57,West,270,13.5,-999.0,99,-99.99,,,0.00,Acu-Link.com,2013-03-31 21:08:00,
2013-03-31 16:24:00,40.1,39.8,29.57,SW,225,9.9,-999.0,99,-99.99,,,0.00,Acu-Link.com,2013-03-31 21:24:00,
2013-03-31 16:39:00,40.1,39.6,29.58,West,270,12.5,-999.0,98,-99.99,,,0.00,Acu-Link.com,2013-03-31 21:39:00,
2013-03-31 16:54:00,42.8,38.3,29.57,West,270,11.4,-999.0,84,-99.99,,,0.00,Acu-Link.com,2013-03-31 21:54:00,
2013-03-31 17:09:00,41.5,37.3,29.58,West,270,9.4,-999.0,85,-99.99,,,0.00,Acu-Link.com,2013-03-31 22:09:00,
2013-03-31 17:25:00,41.0,37.1,29.59,West,270,6.8,-999.0,86,-99.99,,,0.00,Acu-Link.com,2013-03-31 22:25:00,
2013-03-31 17:40:00,40.6,37.9,29.59,West,270,5.3,-999.0,90,-99.99,,,0.00,Acu-Link.com,2013-03-31 22:40:00,
2013-03-31 17:55:00,44.8,40.9,29.60,West,270,13.0,-999.0,86,-99.99,,,0.00,Acu-Link.com,2013-03-31 22:55:00,
2013-03-31 18:11:00,40.8,37.2,29.59,West,270,10.4,-999.0,87,-99.99,,,0.00,Acu-Link.com,2013-03-31 23:11:00,
2013-03-31 18:26:00,41.0,37.1,29.59,WNW,292,11.4,-999.0,86,-99.99,,,0.00,Acu-Link.com,2013-03-31 23:26:00,
2013-03-31 18:41:00,40.5,35.8,29.60,West,270,8.9,-999.0,83,-99.99,,,0.00,Acu-Link.com,2013-03-31 23:41:00,
2013-03-31 18:57:00,39.2,36.8,29.62,WNW,292,5.8,-999.0,91,-99.99,,,0.00,Acu-Link.com,2013-03-31 23:57:00,
2013-03-31 19:12:00,39.0,36.6,29.61,WSW,247,5.8,-999.0,91,-99.99,,,0.00,Acu-Link.com,2013-04-01 00:12:00,
2013-03-31 19:27:00,39.0,37.4,29.62,West,270,10.4,-999.0,94,-99.99,,,0.00,Acu-Link.com,2013-04-01 00:27:00,
2013-03-31 19:43:00,36.1,35.8,29.64,West,270,10.4,-999.0,99,-99.99,,,0.00,Acu-Link.com,2013-04-01 00:43:00,
2013-03-31 19:58:00,34.5,34.2,29.64,West,270,9.4,-999.0,99,-99.99,,,0.00,Acu-Link.com,2013-04-01 00:58:00,
2013-03-31 20:28:00,35.1,34.8,29.65,West,270,5.8,-999.0,99,-99.99,,,0.00,Acu-Link.com,2013-04-01 01:28:00,
2013-03-31 20:44:00,35.8,35.5,29.66,West,270,5.3,-999.0,99,-99.99,,,0.00,Acu-Link.com,2013-04-01 01:44:00,
2013-03-31 20:59:00,34.9,34.6,29.67,WNW,292,8.3,-999.0,99,-99.99,,,0.00,Acu-Link.com,2013-04-01 01:59:00,
2013-03-31 21:14:00,34.2,33.9,29.67,WNW,292,7.8,-999.0,99,-99.99,,,0.00,Acu-Link.com,2013-04-01 02:14:00,
2013-03-31 21:45:00,33.6,33.3,29.68,West,270,6.8,-999.0,99,-99.99,,,0.00,Acu-Link.com,2013-04-01 02:45:00,
2013-03-31 22:00:00,33.6,33.3,29.69,West,270,7.3,-999.0,99,-99.99,,,0.00,Acu-Link.com,2013-04-01 03:00:00,
2013-03-31 22:15:00,33.4,33.1,29.69,West,270,6.8,-999.0,99,-99.99,,,0.00,Acu-Link.com,2013-04-01 03:15:00,
2013-03-31 22:31:00,33.1,32.8,29.71,West,270,5.3,-999.0,99,-99.99,,,0.00,Acu-Link.com,2013-04-01 03:31:00,
2013-03-31 23:01:00,32.2,30.1,29.71,West,270,2.7,-999.0,92,-99.99,,,0.00,Acu-Link.com,2013-04-01 04:01:00,
2013-03-31 23:31:00,31.6,27.3,29.72,WNW,292,1.7,-999.0,84,-99.99,,,0.00,Acu-Link.com,2013-04-01 04:31:00,
2013-03-31 23:47:00,31.1,26.0,29.72,West,270,3.7,-999.0,81,-99.99,,,0.00,Acu-Link.com,2013-04-01 04:47:00,